Webcam Meteoipassi more information Webcam Meteoipassi


altri nostri siti meteo:

Pomeziameteo 1Sito sul meteo

MeteopomeziaSito sul meteo

Pomeziameteo DashboardSito sul meteo

Caput FrigorisSito sul meteo

BarcellonameteoSito sul meteo

ViterbometeoSito sul meteo

MeteotortoretoSito sul meteo

TortoretometeolidoSito sul meteo

MeteoGonzagaSito sul meteo



Wind From: 10-05-2021 08:00 Until: 11-05-2021 00:59 warning for: Wind Level: Yellow info button

Report METAR

   
LIRQ - Firenze
Dati ricevuti: May 11 2021 12:20 am
Sereno  
Sereno  
   Vento: SE 3.7 km/h
Vento: SE 3.7 km/h
Temperatura: 19°C
P.to Rugiada: 9°C
Umidita: 52%
Barometro: 1015 hPa
Visibilita: oltre 10 km
dettagli cloud: Sereno
LIRQ 102220Z 12002KT CAVOK 19/09 Q1015
LIRP - Lucca
Dati ricevuti: May 10 2021 11:45 pm
Sereno  
Sereno  
   Vento: Variabile 3.7 km/h
Vento: Variabile 3.7 km/h
Temperatura: 16°C
P.to Rugiada: 10°C
Umidita: 68%
Barometro: 1015 hPa
Visibilita: oltre 10 km
dettagli cloud: Sereno
LIRP 102145Z VRB02KT CAVOK 16/10 Q1015 NOSIG
LIPE - Bologna
Dati ricevuti: May 11 2021 12:20 am
Sereno  
Sereno  
   Vento: NE 9.3 km/h
Vento: NE 9.3 km/h
Temperatura: 16°C
P.to Rugiada: 15°C
Umidita: 94%
Barometro: 1014 hPa
Visibilita: oltre 10 km
dettagli cloud: Sereno
LIPE 102220Z 06005KT 050V110 CAVOK 16/15 Q1014
LIMP - Parma
Dati ricevuti: May 10 2021 9:50 pm
DATI Obsoleti
Molto nuvoloso  
Molto nuvoloso  
   Vento: Oriente 11.1 km/h
Vento: Oriente 11.1 km/h
Temperatura: 20°C
P.to Rugiada: 11°C
Umidita: 56%
Barometro: 1013 hPa
Nuvole: Molto nuvoloso
Visibilita: oltre 10 km
dettagli cloud: Poche nuvole 1219.2 m,
Molto nuvoloso 2133.6 m
LIMP 101950Z 09006KT 9999 FEW040 BKN070 20/11 Q1013
  

Script sviluppato da  Saratoga-weather.org Adattato per il modello da  Weerstation Leuven

Potete trovare le nostre info meteo anche a:

European Weather Network

Weather Underground

AWEKAS

HAMweather, WeatherForYou, PWS Weather

Strumentazione usata:

Stazione meteo
Davis Vantage Vue

Programma gestore dati meteo
WVIEW

Server per i dati meteo
WDS-5

Provider
Anemos WDS-5

Davis Vantage Vue

WVIEW

WDS-5

Anemos WDS-5